createdAt,value
2022-10-26T00:01:05.838Z,5.43
2022-10-26T00:03:34.504Z,4.82
2022-10-26T00:06:06.451Z,5.05
2022-10-26T00:08:34.267Z,5.45
2022-10-26T00:11:02.097Z,6.45
2022-10-26T00:13:30.157Z,5.97
2022-10-26T00:15:58.071Z,5.47
2022-10-26T00:18:27.458Z,5.53
2022-10-26T00:20:55.377Z,6.03
2022-10-26T00:23:23.233Z,6.07
2022-10-26T00:25:57.642Z,5.72
2022-10-26T00:28:25.804Z,5.75
2022-10-26T00:30:54.207Z,5.25
2022-10-26T00:33:22.450Z,5.50
2022-10-26T00:35:53.840Z,5.35
2022-10-26T00:38:21.747Z,5.15
2022-10-26T00:40:50.135Z,4.45
2022-10-26T00:43:33.345Z,3.95
2022-10-26T00:46:02.987Z,3.47
2022-10-26T00:48:31.877Z,3.17
2022-10-26T00:51:03.575Z,3.33
2022-10-26T00:53:33.362Z,3.22
2022-10-26T00:56:02.200Z,3.28
2022-10-26T00:58:30.341Z,2.67
2022-10-26T01:00:58.161Z,3.67
2022-10-26T01:03:26.439Z,2.92
2022-10-26T01:05:56.372Z,2.75
2022-10-26T01:08:28.097Z,2.60
2022-10-26T01:10:56.582Z,3.15
2022-10-26T01:13:25.020Z,2.70
2022-10-26T01:15:57.755Z,3.17
2022-10-26T01:18:31.188Z,2.75
2022-10-26T01:21:14.926Z,3.15
2022-10-26T01:23:56.045Z,2.47
2022-10-26T01:26:33.463Z,2.65
2022-10-26T01:29:15.752Z,2.92
2022-10-26T01:31:47.948Z,3.00
2022-10-26T01:34:20.434Z,3.13
2022-10-26T01:36:53.101Z,3.05
2022-10-26T01:39:23.462Z,3.20
2022-10-26T01:41:52.535Z,3.00
2022-10-26T01:44:23.112Z,3.00
2022-10-26T01:46:54.157Z,2.97
2022-10-26T01:49:23.691Z,3.28
2022-10-26T01:51:51.618Z,2.92
2022-10-26T01:54:19.445Z,2.95
2022-10-26T01:56:49.815Z,3.47
2022-10-26T01:59:28.163Z,3.60
2022-10-26T02:02:08.019Z,2.75
2022-10-26T02:04:40.038Z,3.00
2022-10-26T02:07:11.739Z,2.63
2022-10-26T02:09:47.216Z,3.20
2022-10-26T02:12:19.706Z,3.85
2022-10-26T02:14:50.596Z,3.97
2022-10-26T02:17:24.958Z,3.38
2022-10-26T02:19:54.313Z,3.05
2022-10-26T02:22:23.460Z,3.22
2022-10-26T02:24:53.041Z,3.90
2022-10-26T02:27:27.001Z,3.20
2022-10-26T02:29:56.306Z,5.50
2022-10-26T02:32:28.084Z,4.28
2022-10-26T02:34:57.467Z,4.60
2022-10-26T02:37:26.782Z,4.82
2022-10-26T02:39:55.687Z,4.50
2022-10-26T02:42:23.955Z,5.30
2022-10-26T02:44:54.815Z,4.95
2022-10-26T02:47:22.663Z,5.45
2022-10-26T02:49:52.313Z,5.63
2022-10-26T02:52:24.459Z,5.82
2022-10-26T02:54:55.263Z,6.27
2022-10-26T02:57:25.833Z,5.75
2022-10-26T02:59:54.798Z,5.38
2022-10-26T03:02:23.467Z,5.88
2022-10-26T03:04:53.203Z,5.85
2022-10-26T03:07:21.822Z,4.95
2022-10-26T03:09:49.614Z,5.65
2022-10-26T03:12:18.345Z,6.13
2022-10-26T03:14:46.441Z,5.00
2022-10-26T03:17:14.513Z,5.10
2022-10-26T03:19:42.300Z,6.07
2022-10-26T03:22:11.890Z,5.10
2022-10-26T03:24:39.759Z,5.47
2022-10-26T03:27:07.585Z,4.65
2022-10-26T03:29:35.653Z,4.93
2022-10-26T03:32:03.443Z,5.28
2022-10-26T03:34:31.434Z,5.07
2022-10-26T03:36:59.821Z,4.25
2022-10-26T03:39:29.010Z,4.88
2022-10-26T03:41:57.173Z,4.63
2022-10-26T03:44:24.962Z,4.45
2022-10-26T03:46:53.050Z,5.07
2022-10-26T03:49:20.850Z,3.97
2022-10-26T03:51:48.612Z,4.57
2022-10-26T03:54:16.561Z,3.38
2022-10-26T03:56:45.925Z,3.97
2022-10-26T03:59:13.711Z,4.47
2022-10-26T04:01:41.555Z,4.47
2022-10-26T04:04:09.781Z,3.53
2022-10-26T04:06:37.639Z,3.92
2022-10-26T04:09:08.408Z,3.90
2022-10-26T04:11:36.501Z,3.80
2022-10-26T04:14:05.607Z,3.42
2022-10-26T04:16:33.617Z,4.45
2022-10-26T04:19:01.946Z,4.13
2022-10-26T04:21:30.061Z,3.70
2022-10-26T04:23:57.910Z,4.00
2022-10-26T04:26:25.911Z,4.05
2022-10-26T04:28:53.948Z,4.57
2022-10-26T04:31:23.138Z,4.82
2022-10-26T04:33:51.107Z,4.68
2022-10-26T04:36:19.176Z,4.82
2022-10-26T04:38:49.229Z,4.43
2022-10-26T04:41:17.120Z,4.95
2022-10-26T04:43:44.914Z,4.32
2022-10-26T04:46:16.734Z,4.68
2022-10-26T04:48:46.423Z,4.40
2022-10-26T04:51:14.305Z,5.05
2022-10-26T04:53:42.327Z,5.28
2022-10-26T04:56:10.715Z,5.22
2022-10-26T04:58:38.641Z,5.25
2022-10-26T05:01:06.961Z,5.05
2022-10-26T05:03:35.026Z,5.72
2022-10-26T05:06:04.441Z,5.97
2022-10-26T05:08:32.278Z,6.60
2022-10-26T05:11:00.098Z,6.13
2022-10-26T05:13:28.213Z,4.85
2022-10-26T05:15:56.217Z,5.45
2022-10-26T05:18:24.088Z,5.72
2022-10-26T05:20:53.562Z,4.78
2022-10-26T05:23:23.274Z,5.57
2022-10-26T05:25:51.143Z,5.20
2022-10-26T05:28:19.286Z,5.35
2022-10-26T05:30:47.628Z,5.07
2022-10-26T05:33:15.545Z,5.45
2022-10-26T05:35:43.432Z,5.53
2022-10-26T05:38:11.905Z,5.82
2022-10-26T05:40:47.346Z,5.40
2022-10-26T05:43:15.427Z,6.65
2022-10-26T05:45:43.255Z,10.13
2022-10-26T05:48:11.510Z,10.45
2022-10-26T05:50:39.326Z,9.70
2022-10-26T05:53:07.119Z,9.40
2022-10-26T05:55:35.300Z,8.82
2022-10-26T05:58:04.833Z,8.45
2022-10-26T06:00:33.111Z,10.23
2022-10-26T06:03:06.587Z,9.57
2022-10-26T06:05:36.785Z,9.48
2022-10-26T06:08:09.037Z,8.93
2022-10-26T06:10:37.113Z,9.45
2022-10-26T06:13:06.998Z,8.75
2022-10-26T06:15:39.498Z,10.60
2022-10-26T06:18:14.890Z,10.38
2022-10-26T06:20:50.890Z,11.65
2022-10-26T06:23:33.734Z,12.48
2022-10-26T06:26:05.251Z,12.77
2022-10-26T06:28:38.657Z,9.70
2022-10-26T06:31:06.467Z,10.05
2022-10-26T06:33:34.458Z,10.43
2022-10-26T06:36:08.385Z,9.25
2022-10-26T06:38:36.719Z,9.40
2022-10-26T06:41:04.667Z,8.00
2022-10-26T06:43:33.305Z,6.68
2022-10-26T06:46:06.800Z,6.03
2022-10-26T06:48:36.844Z,5.65
2022-10-26T06:51:04.894Z,5.60
2022-10-26T06:53:34.788Z,5.35
2022-10-26T06:56:02.889Z,5.53
2022-10-26T06:58:32.474Z,6.68
2022-10-26T07:01:00.637Z,6.40
2022-10-26T07:03:29.857Z,6.30
2022-10-26T07:05:57.849Z,5.63
2022-10-26T07:08:25.710Z,5.72
2022-10-26T07:10:53.600Z,5.55
2022-10-26T07:13:21.436Z,6.38
2022-10-26T07:15:49.263Z,6.45
2022-10-26T07:18:17.067Z,6.85
2022-10-26T07:20:46.214Z,6.07
2022-10-26T07:23:15.863Z,5.25
2022-10-26T07:25:43.864Z,4.40
2022-10-26T07:28:12.226Z,5.57
2022-10-26T07:30:40.676Z,5.03
2022-10-26T07:33:09.888Z,5.50
2022-10-26T07:35:37.929Z,5.68
2022-10-26T07:38:07.539Z,6.35
2022-10-26T07:40:35.452Z,6.72
2022-10-26T07:43:03.247Z,12.20
2022-10-26T07:45:31.599Z,12.15
2022-10-26T07:47:59.427Z,11.45
2022-10-26T07:50:27.219Z,7.53
2022-10-26T07:52:55.975Z,11.25
2022-10-26T07:55:25.168Z,11.35
2022-10-26T07:57:54.764Z,10.98
2022-10-26T08:00:23.253Z,9.27
2022-10-26T08:02:51.049Z,8.57
2022-10-26T08:05:18.991Z,8.38
2022-10-26T08:07:47.307Z,7.10
2022-10-26T08:10:16.133Z,7.63
2022-10-26T08:12:45.469Z,6.53
2022-10-26T08:15:13.348Z,7.32
2022-10-26T08:17:41.461Z,7.53
2022-10-26T08:20:09.904Z,7.15
2022-10-26T08:22:37.755Z,6.50
2022-10-26T08:25:06.280Z,7.75
2022-10-26T08:27:34.124Z,8.05
2022-10-26T08:30:03.326Z,7.45
2022-10-26T08:32:31.157Z,8.20
2022-10-26T08:34:59.185Z,8.10
2022-10-26T08:37:27.756Z,8.52
2022-10-26T08:39:56.682Z,8.70
2022-10-26T08:42:29.689Z,9.23
2022-10-26T08:45:00.599Z,8.30
2022-10-26T08:47:31.784Z,8.35
2022-10-26T08:50:00.803Z,8.68
2022-10-26T08:52:32.778Z,9.63
2022-10-26T08:55:02.968Z,9.68
2022-10-26T08:57:35.182Z,9.35
2022-10-26T09:00:06.394Z,10.43
2022-10-26T09:02:38.242Z,10.23
2022-10-26T09:05:15.882Z,9.70
2022-10-26T09:07:50.358Z,11.10
2022-10-26T09:10:25.655Z,9.27
2022-10-26T09:12:55.900Z,11.95
2022-10-26T09:15:27.623Z,12.40
2022-10-26T09:17:59.498Z,11.30
2022-10-26T09:20:37.065Z,9.82
2022-10-26T09:23:08.987Z,10.10
2022-10-26T09:25:39.690Z,10.70
2022-10-26T09:28:12.884Z,12.35
2022-10-26T09:30:40.978Z,13.45
2022-10-26T09:33:15.343Z,12.40
2022-10-26T09:35:45.464Z,9.95
2022-10-26T09:38:15.890Z,8.55
2022-10-26T09:40:47.282Z,9.15
2022-10-26T09:43:16.921Z,9.20
2022-10-26T09:45:47.546Z,8.52
2022-10-26T09:48:21.067Z,8.38
2022-10-26T09:50:49.828Z,9.25
2022-10-26T09:53:17.786Z,9.15
2022-10-26T09:55:46.851Z,9.82
2022-10-26T09:58:16.847Z,12.55
2022-10-26T10:00:45.699Z,11.35
2022-10-26T10:03:22.036Z,13.40
2022-10-26T10:05:51.826Z,14.18
2022-10-26T10:08:21.644Z,11.65
2022-10-26T10:10:56.726Z,15.13
2022-10-26T10:13:25.391Z,12.38
2022-10-26T10:15:55.131Z,10.30
2022-10-26T10:18:24.878Z,10.38
2022-10-26T10:20:53.734Z,9.25
2022-10-26T10:23:27.387Z,9.75
2022-10-26T10:26:02.373Z,8.63
2022-10-26T10:28:30.416Z,8.32
2022-10-26T10:31:00.395Z,7.90
2022-10-26T10:33:37.401Z,7.55
2022-10-26T10:36:07.271Z,7.03
2022-10-26T10:38:38.350Z,7.10
2022-10-26T10:41:06.978Z,7.25
2022-10-26T10:43:35.071Z,6.88
2022-10-26T10:46:02.933Z,6.47
2022-10-26T10:48:32.592Z,6.28
2022-10-26T10:51:05.212Z,7.07
2022-10-26T10:53:36.029Z,7.05
2022-10-26T10:56:11.627Z,6.65
2022-10-26T10:58:43.559Z,6.07
2022-10-26T11:01:14.053Z,4.95
2022-10-26T11:03:46.481Z,4.43
2022-10-26T11:06:16.920Z,4.63
2022-10-26T11:08:48.010Z,4.30
2022-10-26T11:11:17.990Z,4.20
2022-10-26T11:13:49.619Z,4.32
2022-10-26T11:16:20.327Z,4.18
2022-10-26T11:18:50.344Z,4.68
2022-10-26T11:21:23.252Z,4.85
2022-10-26T11:23:53.414Z,4.32
2022-10-26T11:26:23.321Z,5.10
2022-10-26T11:28:55.322Z,5.72
2022-10-26T11:31:27.307Z,4.07
2022-10-26T11:34:02.954Z,4.82
2022-10-26T11:36:34.507Z,4.70
2022-10-26T11:39:07.692Z,5.78
2022-10-26T11:41:37.499Z,5.60
2022-10-26T11:44:11.022Z,6.07
2022-10-26T11:46:41.936Z,5.07
2022-10-26T11:49:12.485Z,5.28
2022-10-26T11:51:44.391Z,5.18
2022-10-26T11:54:14.985Z,4.65
2022-10-26T11:56:44.122Z,4.50
2022-10-26T11:59:17.942Z,5.10
2022-10-26T12:01:46.359Z,5.18
2022-10-26T12:04:14.808Z,5.70
2022-10-26T12:06:44.314Z,6.13
2022-10-26T12:09:15.291Z,5.45
2022-10-26T12:11:47.430Z,5.43
2022-10-26T12:14:19.342Z,6.63
2022-10-26T12:16:51.026Z,4.93
2022-10-26T12:19:21.575Z,4.72
2022-10-26T12:21:51.790Z,5.03
2022-10-26T12:24:27.030Z,4.45
2022-10-26T12:26:55.445Z,4.85
2022-10-26T12:29:35.765Z,5.30
2022-10-26T12:32:04.095Z,5.35
2022-10-26T12:34:55.923Z,5.55
2022-10-26T12:37:29.630Z,5.63
2022-10-26T12:40:17.505Z,5.60
2022-10-26T12:42:46.621Z,5.93
2022-10-26T12:45:19.772Z,5.57
2022-10-26T12:48:10.630Z,4.93
2022-10-26T12:50:48.808Z,6.22
2022-10-26T12:53:18.687Z,5.47
2022-10-26T12:55:57.339Z,6.25
2022-10-26T12:58:43.780Z,5.15
2022-10-26T13:01:26.558Z,5.78
2022-10-26T13:04:01.151Z,4.90
2022-10-26T13:06:38.521Z,4.63
2022-10-26T13:11:45.717Z,4.80
2022-10-26T13:14:31.290Z,4.35
2022-10-26T13:17:01.234Z,3.80
2022-10-26T13:19:33.764Z,4.57
2022-10-26T13:22:04.473Z,4.80
2022-10-26T13:24:33.603Z,4.13
2022-10-26T13:27:20.539Z,4.53
2022-10-26T13:30:06.848Z,4.30
2022-10-26T13:32:36.597Z,4.35
2022-10-26T13:35:07.237Z,4.00
2022-10-26T13:37:35.649Z,3.38
2022-10-26T13:40:06.117Z,4.38
2022-10-26T13:42:38.655Z,3.45
2022-10-26T13:45:10.140Z,3.60
2022-10-26T13:47:42.728Z,3.65
2022-10-26T13:50:16.606Z,3.83
2022-10-26T13:52:46.381Z,3.40
2022-10-26T13:55:20.675Z,3.42
2022-10-26T13:57:57.622Z,3.72
2022-10-26T14:00:25.652Z,3.28
2022-10-26T14:02:54.608Z,3.63
2022-10-26T14:05:24.255Z,2.95
2022-10-26T14:07:55.895Z,3.60
2022-10-26T14:12:53.186Z,3.85
2022-10-26T14:15:24.900Z,4.55
2022-10-26T14:17:53.453Z,3.35
2022-10-26T14:20:23.022Z,2.97
2022-10-26T14:22:52.719Z,2.53
2022-10-26T14:25:30.996Z,3.05
2022-10-26T14:28:21.576Z,3.33
2022-10-26T14:30:49.428Z,2.70
2022-10-26T14:33:21.648Z,2.35
2022-10-26T14:35:49.873Z,2.10
2022-10-26T14:38:21.206Z,2.65
2022-10-26T14:40:49.623Z,2.63
2022-10-26T14:43:19.215Z,2.42
2022-10-26T14:45:49.857Z,2.35
2022-10-26T14:48:22.931Z,2.40
2022-10-26T14:51:03.887Z,2.22
2022-10-26T14:53:35.448Z,2.20
2022-10-26T14:56:04.597Z,2.42
2022-10-26T14:58:33.968Z,3.17
2022-10-26T15:01:17.983Z,2.70
2022-10-26T15:03:46.273Z,2.42
2022-10-26T15:06:23.576Z,2.83
2022-10-26T15:08:57.525Z,2.47
2022-10-26T15:11:25.610Z,2.90
2022-10-26T15:13:54.046Z,2.80
2022-10-26T15:16:23.182Z,2.63
2022-10-26T15:18:53.674Z,2.72
2022-10-26T15:21:25.798Z,3.40
2022-10-26T15:23:54.728Z,2.53
2022-10-26T15:26:24.346Z,2.85
2022-10-26T15:28:53.109Z,2.50
2022-10-26T15:31:30.204Z,3.38
2022-10-26T15:34:14.766Z,3.10
2022-10-26T15:36:43.000Z,4.65
2022-10-26T15:39:11.517Z,4.57
2022-10-26T15:41:46.948Z,5.38
2022-10-26T15:44:16.096Z,4.35
2022-10-26T15:46:44.261Z,4.63
2022-10-26T15:49:16.203Z,5.20
2022-10-26T15:51:45.260Z,4.30
2022-10-26T15:54:13.526Z,4.43
2022-10-26T15:57:03.921Z,3.95
2022-10-26T16:06:31.319Z,3.03
2022-10-26T16:09:01.905Z,3.10
2022-10-26T16:11:30.000Z,4.97
2022-10-26T16:14:01.124Z,6.22
2022-10-26T16:16:32.723Z,6.45
2022-10-26T16:19:25.651Z,5.97
2022-10-26T16:21:52.772Z,6.18
2022-10-26T16:24:20.622Z,5.27
2022-10-26T16:27:22.224Z,5.03
2022-10-26T16:29:50.308Z,4.40
2022-10-26T16:32:18.139Z,3.95
2022-10-26T16:34:46.063Z,4.43
2022-10-26T16:37:15.259Z,4.43
2022-10-26T16:39:43.184Z,4.25
2022-10-26T16:42:11.085Z,3.85
2022-10-26T16:44:39.006Z,3.90
2022-10-26T16:50:36.470Z,3.80
2022-10-26T16:53:05.853Z,4.05
2022-10-26T16:55:34.073Z,3.95
2022-10-26T16:58:02.024Z,4.40
2022-10-26T17:00:29.872Z,3.80
2022-10-26T17:02:57.669Z,3.72
2022-10-26T17:05:25.530Z,4.65
2022-10-26T17:07:53.632Z,3.70
2022-10-26T17:10:27.864Z,4.55
2022-10-26T17:12:57.256Z,3.85
2022-10-26T17:15:28.916Z,4.07
2022-10-26T17:17:57.001Z,4.05
2022-10-26T17:20:24.870Z,3.60
2022-10-26T17:22:53.168Z,4.63
2022-10-26T17:25:21.081Z,4.05
2022-10-26T17:27:50.268Z,4.00
2022-10-26T17:30:18.068Z,4.22
2022-10-26T17:32:46.129Z,4.80
2022-10-26T17:35:17.070Z,5.35
2022-10-26T17:37:47.315Z,6.63
2022-10-26T17:40:15.251Z,6.53
2022-10-26T17:42:43.515Z,6.25
2022-10-26T17:45:13.510Z,9.27
2022-10-26T17:47:41.676Z,11.63
2022-10-26T17:50:10.028Z,11.02
2022-10-26T17:52:37.848Z,9.13
2022-10-26T17:55:16.017Z,8.38
2022-10-26T17:57:50.378Z,8.02
2022-10-26T18:00:19.901Z,8.25
2022-10-26T18:02:47.864Z,7.85
2022-10-26T18:05:15.726Z,7.25
2022-10-26T18:07:43.518Z,6.80
2022-10-26T18:12:47.970Z,10.00
2022-10-26T18:15:16.357Z,8.13
2022-10-26T18:17:45.594Z,9.23
2022-10-26T18:20:13.441Z,11.15
2022-10-26T18:22:41.307Z,10.20
2022-10-26T18:25:09.546Z,10.18
2022-10-26T18:27:37.373Z,9.98
2022-10-26T18:30:05.595Z,9.00
2022-10-26T18:32:33.380Z,7.93
2022-10-26T18:35:02.730Z,7.28
2022-10-26T18:37:30.553Z,8.07
2022-10-26T18:39:58.570Z,7.18
2022-10-26T18:42:27.842Z,6.90
2022-10-26T18:45:00.922Z,8.25
2022-10-26T18:47:29.954Z,8.68
2022-10-26T18:49:57.889Z,7.45
2022-10-26T18:52:28.266Z,8.73
2022-10-26T18:54:56.374Z,7.70
2022-10-26T18:57:26.953Z,7.22
2022-10-26T18:59:55.189Z,6.70
2022-10-26T19:02:23.589Z,8.32
2022-10-26T19:04:53.640Z,7.50
2022-10-26T19:07:21.428Z,7.63
2022-10-26T19:09:50.621Z,6.72
2022-10-26T19:12:18.674Z,6.97
2022-10-26T19:14:46.467Z,7.05
2022-10-26T19:17:14.238Z,7.88
2022-10-26T19:19:42.357Z,7.70
2022-10-26T19:22:11.049Z,7.15
2022-10-26T19:24:39.102Z,6.75
2022-10-26T19:27:08.338Z,7.50
2022-10-26T19:29:36.264Z,6.45
2022-10-26T19:32:04.127Z,6.60
2022-10-26T19:34:32.059Z,7.30
2022-10-26T19:36:59.892Z,6.82
2022-10-26T19:39:27.747Z,7.35
2022-10-26T19:41:55.928Z,6.38
2022-10-26T19:44:25.639Z,7.22
2022-10-26T19:46:53.810Z,6.25
2022-10-26T19:49:21.767Z,6.70
2022-10-26T19:51:49.574Z,6.10
2022-10-26T19:54:17.370Z,6.47
2022-10-26T19:56:45.631Z,5.85
2022-10-26T19:59:13.692Z,6.07
2022-10-26T20:01:43.036Z,5.95
2022-10-26T20:04:10.872Z,6.75
2022-10-26T20:06:39.098Z,6.65
2022-10-26T20:09:07.263Z,6.45
2022-10-26T20:11:38.455Z,6.47
2022-10-26T20:14:06.527Z,6.75
2022-10-26T20:16:34.362Z,7.20
2022-10-26T20:19:03.595Z,6.07
2022-10-26T20:21:32.052Z,7.10
2022-10-26T20:24:00.068Z,7.53
2022-10-26T20:26:28.621Z,6.13
2022-10-26T20:28:56.810Z,6.82
2022-10-26T20:31:24.641Z,7.20
2022-10-26T20:33:53.188Z,6.38
2022-10-26T20:36:22.693Z,7.20
2022-10-26T20:38:51.075Z,6.63
2022-10-26T20:41:19.643Z,6.03
2022-10-26T20:43:48.019Z,7.13
2022-10-26T20:46:22.038Z,6.47
2022-10-26T20:48:50.355Z,7.30
2022-10-26T20:51:22.400Z,6.07
2022-10-26T20:54:01.086Z,6.72
2022-10-26T20:56:29.567Z,7.18
2022-10-26T20:58:58.009Z,6.88
2022-10-26T21:01:27.620Z,6.53
2022-10-26T21:03:56.487Z,7.85
2022-10-26T21:06:24.744Z,7.50
2022-10-26T21:08:53.209Z,7.22
2022-10-26T21:11:23.684Z,6.43
2022-10-26T21:13:51.546Z,7.63
2022-10-26T21:18:50.123Z,7.65
2022-10-26T21:21:17.911Z,6.43
2022-10-26T21:23:45.851Z,7.35
2022-10-26T21:26:13.679Z,6.22
2022-10-26T21:28:46.045Z,6.80
2022-10-26T21:31:14.828Z,6.60
2022-10-26T21:33:43.046Z,6.68
2022-10-26T21:36:12.329Z,7.20
2022-10-26T21:38:43.719Z,6.38
2022-10-26T21:41:12.609Z,6.63
2022-10-26T21:43:41.331Z,6.53
2022-10-26T21:46:11.167Z,8.95
2022-10-26T21:48:43.113Z,7.13
2022-10-26T21:51:12.474Z,7.20
2022-10-26T21:53:40.552Z,7.70
2022-10-26T21:56:09.726Z,6.50
2022-10-26T21:58:37.865Z,7.10
2022-10-26T22:01:06.395Z,6.68
2022-10-26T22:03:38.714Z,6.90
2022-10-26T22:06:07.043Z,5.93
2022-10-26T22:08:35.349Z,6.10
2022-10-26T22:11:06.022Z,7.18
2022-10-26T22:13:33.860Z,7.03
2022-10-26T22:16:03.132Z,6.50
2022-10-26T22:18:31.203Z,7.45
2022-10-26T22:21:00.648Z,6.97
2022-10-26T22:23:28.657Z,6.63
2022-10-26T22:26:01.573Z,7.47
2022-10-26T22:28:33.017Z,8.25
2022-10-26T22:31:04.222Z,7.53
2022-10-26T22:33:32.236Z,8.20
2022-10-26T22:36:05.798Z,8.13
2022-10-26T22:38:33.708Z,8.15
2022-10-26T22:41:01.649Z,8.07
2022-10-26T22:43:29.984Z,6.95
2022-10-26T22:46:01.753Z,7.18
2022-10-26T22:48:32.203Z,7.25
2022-10-26T22:51:00.241Z,6.80
2022-10-26T22:53:29.440Z,6.45
2022-10-26T22:55:57.289Z,7.13
2022-10-26T22:58:25.258Z,6.65
2022-10-26T23:00:53.182Z,6.65
2022-10-26T23:03:21.347Z,6.15
2022-10-26T23:05:49.950Z,7.30
2022-10-26T23:08:17.800Z,7.40
2022-10-26T23:10:47.194Z,7.55
2022-10-26T23:13:15.059Z,6.72
2022-10-26T23:15:42.851Z,7.22
2022-10-26T23:18:10.710Z,7.00
2022-10-26T23:20:38.481Z,7.00
2022-10-26T23:23:07.076Z,7.53
2022-10-26T23:25:34.920Z,7.35
2022-10-26T23:28:04.373Z,7.82
2022-10-26T23:30:32.928Z,7.22
2022-10-26T23:33:00.953Z,7.47
2022-10-26T23:35:28.806Z,7.75
2022-10-26T23:37:58.164Z,7.53
2022-10-26T23:40:26.035Z,7.28
2022-10-26T23:42:54.105Z,8.25
2022-10-26T23:45:23.589Z,7.85
2022-10-26T23:47:51.908Z,7.00
2022-10-26T23:50:20.215Z,7.35
2022-10-26T23:52:49.264Z,7.20
2022-10-26T23:55:17.270Z,7.45
2022-10-26T23:57:46.224Z,7.55
